sensor_id;sensor_type;location;lat;lon;timestamp;P1;durP1;ratioP1;P2;durP2;ratioP2
64011;SDS011;50211;52.768;12.124;2023-04-24T00:00:34;8.00;;;4.77;;
64011;SDS011;50211;52.768;12.124;2023-04-24T00:03:00;8.00;;;4.80;;
64011;SDS011;50211;52.768;12.124;2023-04-24T00:05:28;5.93;;;4.07;;
64011;SDS011;50211;52.768;12.124;2023-04-24T00:07:53;5.03;;;4.10;;
64011;SDS011;50211;52.768;12.124;2023-04-24T00:10:20;6.03;;;4.37;;
64011;SDS011;50211;52.768;12.124;2023-04-24T00:12:46;8.03;;;4.70;;
64011;SDS011;50211;52.768;12.124;2023-04-24T00:15:11;4.87;;;3.83;;
64011;SDS011;50211;52.768;12.124;2023-04-24T00:17:37;7.50;;;4.47;;
64011;SDS011;50211;52.768;12.124;2023-04-24T00:20:03;6.93;;;4.30;;
64011;SDS011;50211;52.768;12.124;2023-04-24T00:22:29;5.57;;;4.20;;
64011;SDS011;50211;52.768;12.124;2023-04-24T00:24:55;6.23;;;4.57;;
64011;SDS011;50211;52.768;12.124;2023-04-24T00:27:21;8.27;;;4.47;;
64011;SDS011;50211;52.768;12.124;2023-04-24T00:29:47;5.60;;;4.33;;
64011;SDS011;50211;52.768;12.124;2023-04-24T00:32:13;7.20;;;4.83;;
64011;SDS011;50211;52.768;12.124;2023-04-24T00:34:39;5.80;;;4.67;;
64011;SDS011;50211;52.768;12.124;2023-04-24T00:37:05;6.27;;;4.30;;
64011;SDS011;50211;52.768;12.124;2023-04-24T00:39:31;6.20;;;4.37;;
64011;SDS011;50211;52.768;12.124;2023-04-24T00:41:56;6.73;;;4.63;;
64011;SDS011;50211;52.768;12.124;2023-04-24T00:44:22;10.87;;;4.73;;
64011;SDS011;50211;52.768;12.124;2023-04-24T00:46:48;6.37;;;4.27;;
64011;SDS011;50211;52.768;12.124;2023-04-24T00:49:19;6.93;;;4.70;;
64011;SDS011;50211;52.768;12.124;2023-04-24T00:51:46;5.93;;;4.13;;
64011;SDS011;50211;52.768;12.124;2023-04-24T00:54:12;7.83;;;4.80;;
64011;SDS011;50211;52.768;12.124;2023-04-24T00:56:38;7.13;;;4.67;;
64011;SDS011;50211;52.768;12.124;2023-04-24T00:59:05;8.77;;;4.13;;
64011;SDS011;50211;52.768;12.124;2023-04-24T01:01:31;6.97;;;4.30;;
64011;SDS011;50211;52.768;12.124;2023-04-24T01:03:57;6.70;;;4.53;;
64011;SDS011;50211;52.768;12.124;2023-04-24T01:06:24;8.13;;;4.90;;
64011;SDS011;50211;52.768;12.124;2023-04-24T01:08:53;6.97;;;4.70;;
64011;SDS011;50211;52.768;12.124;2023-04-24T01:11:19;6.57;;;4.73;;
64011;SDS011;50211;52.768;12.124;2023-04-24T01:13:47;5.18;;;3.83;;
64011;SDS011;50211;52.768;12.124;2023-04-24T01:16:13;6.20;;;4.13;;
64011;SDS011;50211;52.768;12.124;2023-04-24T01:18:39;6.23;;;3.87;;
64011;SDS011;50211;52.768;12.124;2023-04-24T01:21:06;5.03;;;4.13;;
64011;SDS011;50211;52.768;12.124;2023-04-24T01:23:33;5.90;;;4.20;;
64011;SDS011;50211;52.768;12.124;2023-04-24T01:25:59;6.93;;;4.40;;
64011;SDS011;50211;52.768;12.124;2023-04-24T01:28:25;9.27;;;4.40;;
64011;SDS011;50211;52.768;12.124;2023-04-24T01:30:51;6.27;;;4.10;;
64011;SDS011;50211;52.768;12.124;2023-04-24T01:33:17;4.50;;;3.97;;
64011;SDS011;50211;52.768;12.124;2023-04-24T01:35:43;12.17;;;4.27;;
64011;SDS011;50211;52.768;12.124;2023-04-24T01:38:08;5.37;;;3.67;;
64011;SDS011;50211;52.768;12.124;2023-04-24T01:40:34;5.77;;;4.03;;
64011;SDS011;50211;52.768;12.124;2023-04-24T01:43:00;4.73;;;3.57;;
64011;SDS011;50211;52.768;12.124;2023-04-24T01:45:25;5.30;;;3.87;;
64011;SDS011;50211;52.768;12.124;2023-04-24T01:47:51;5.93;;;3.90;;
64011;SDS011;50211;52.768;12.124;2023-04-24T01:50:17;4.87;;;3.83;;
64011;SDS011;50211;52.768;12.124;2023-04-24T01:52:43;5.83;;;3.47;;
64011;SDS011;50211;52.768;12.124;2023-04-24T01:55:09;4.30;;;3.10;;
64011;SDS011;50211;52.768;12.124;2023-04-24T01:57:35;3.80;;;3.00;;
64011;SDS011;50211;52.768;12.124;2023-04-24T02:00:01;4.13;;;2.93;;
64011;SDS011;50211;52.768;12.124;2023-04-24T02:02:29;3.97;;;3.23;;
64011;SDS011;50211;52.768;12.124;2023-04-24T02:04:54;3.27;;;2.97;;
64011;SDS011;50211;52.768;12.124;2023-04-24T02:07:20;3.88;;;2.80;;
64011;SDS011;50211;52.768;12.124;2023-04-24T02:09:46;4.63;;;2.80;;
64011;SDS011;50211;52.768;12.124;2023-04-24T02:12:11;3.45;;;2.90;;
64011;SDS011;50211;52.768;12.124;2023-04-24T02:14:37;3.67;;;2.95;;
64011;SDS011;50211;52.768;12.124;2023-04-24T02:17:02;3.67;;;2.80;;
64011;SDS011;50211;52.768;12.124;2023-04-24T02:19:28;3.10;;;2.53;;
64011;SDS011;50211;52.768;12.124;2023-04-24T02:21:54;5.10;;;2.90;;
64011;SDS011;50211;52.768;12.124;2023-04-24T02:24:19;3.85;;;2.83;;
64011;SDS011;50211;52.768;12.124;2023-04-24T02:26:45;3.87;;;2.93;;
64011;SDS011;50211;52.768;12.124;2023-04-24T02:29:10;4.43;;;3.07;;
64011;SDS011;50211;52.768;12.124;2023-04-24T02:31:36;3.38;;;2.92;;
64011;SDS011;50211;52.768;12.124;2023-04-24T02:34:01;4.88;;;2.80;;
64011;SDS011;50211;52.768;12.124;2023-04-24T02:36:27;3.92;;;2.97;;
64011;SDS011;50211;52.768;12.124;2023-04-24T02:38:52;4.53;;;3.25;;
64011;SDS011;50211;52.768;12.124;2023-04-24T02:41:18;3.30;;;2.80;;
64011;SDS011;50211;52.768;12.124;2023-04-24T02:43:44;4.50;;;2.83;;
64011;SDS011;50211;52.768;12.124;2023-04-24T02:46:10;3.92;;;2.97;;
64011;SDS011;50211;52.768;12.124;2023-04-24T02:48:35;7.57;;;3.10;;
64011;SDS011;50211;52.768;12.124;2023-04-24T02:51:01;5.63;;;3.27;;
64011;SDS011;50211;52.768;12.124;2023-04-24T02:53:26;3.30;;;2.90;;
64011;SDS011;50211;52.768;12.124;2023-04-24T02:55:52;5.10;;;3.10;;
64011;SDS011;50211;52.768;12.124;2023-04-24T02:58:17;3.50;;;2.88;;
64011;SDS011;50211;52.768;12.124;2023-04-24T03:00:45;5.18;;;3.10;;
64011;SDS011;50211;52.768;12.124;2023-04-24T03:03:10;3.42;;;2.75;;
64011;SDS011;50211;52.768;12.124;2023-04-24T03:05:36;4.00;;;3.08;;
64011;SDS011;50211;52.768;12.124;2023-04-24T03:08:02;4.78;;;2.97;;
64011;SDS011;50211;52.768;12.124;2023-04-24T03:10:27;3.58;;;2.90;;
64011;SDS011;50211;52.768;12.124;2023-04-24T03:12:53;3.60;;;3.10;;
64011;SDS011;50211;52.768;12.124;2023-04-24T03:15:19;4.88;;;3.03;;
64011;SDS011;50211;52.768;12.124;2023-04-24T03:17:45;3.95;;;2.95;;
64011;SDS011;50211;52.768;12.124;2023-04-24T03:20:11;4.03;;;2.80;;
64011;SDS011;50211;52.768;12.124;2023-04-24T03:22:37;4.35;;;2.90;;
64011;SDS011;50211;52.768;12.124;2023-04-24T03:25:03;4.33;;;3.40;;
64011;SDS011;50211;52.768;12.124;2023-04-24T03:27:29;4.65;;;2.92;;
64011;SDS011;50211;52.768;12.124;2023-04-24T03:29:55;5.15;;;2.95;;
64011;SDS011;50211;52.768;12.124;2023-04-24T03:32:21;3.85;;;2.90;;
64011;SDS011;50211;52.768;12.124;2023-04-24T03:34:47;3.88;;;3.20;;
64011;SDS011;50211;52.768;12.124;2023-04-24T03:37:13;4.22;;;2.60;;
64011;SDS011;50211;52.768;12.124;2023-04-24T03:39:39;4.70;;;2.77;;
64011;SDS011;50211;52.768;12.124;2023-04-24T03:42:05;3.30;;;2.53;;
64011;SDS011;50211;52.768;12.124;2023-04-24T03:44:30;5.13;;;2.90;;
64011;SDS011;50211;52.768;12.124;2023-04-24T03:46:57;3.10;;;2.40;;
64011;SDS011;50211;52.768;12.124;2023-04-24T03:49:23;3.50;;;2.80;;
64011;SDS011;50211;52.768;12.124;2023-04-24T03:51:48;5.55;;;3.30;;
64011;SDS011;50211;52.768;12.124;2023-04-24T03:54:14;3.67;;;2.57;;
64011;SDS011;50211;52.768;12.124;2023-04-24T03:56:39;3.45;;;2.45;;
64011;SDS011;50211;52.768;12.124;2023-04-24T03:59:05;3.25;;;2.50;;
64011;SDS011;50211;52.768;12.124;2023-04-24T04:01:30;3.80;;;2.28;;
64011;SDS011;50211;52.768;12.124;2023-04-24T04:03:56;3.27;;;2.67;;
64011;SDS011;50211;52.768;12.124;2023-04-24T04:06:21;7.00;;;3.03;;
64011;SDS011;50211;52.768;12.124;2023-04-24T04:08:47;3.05;;;2.65;;
64011;SDS011;50211;52.768;12.124;2023-04-24T04:11:13;2.95;;;2.58;;
64011;SDS011;50211;52.768;12.124;2023-04-24T04:13:38;3.60;;;3.08;;
64011;SDS011;50211;52.768;12.124;2023-04-24T04:16:04;4.20;;;2.58;;
64011;SDS011;50211;52.768;12.124;2023-04-24T04:18:30;4.50;;;2.70;;
64011;SDS011;50211;52.768;12.124;2023-04-24T04:20:55;4.38;;;2.80;;
64011;SDS011;50211;52.768;12.124;2023-04-24T04:23:21;3.33;;;2.50;;
64011;SDS011;50211;52.768;12.124;2023-04-24T04:25:47;3.25;;;2.58;;
64011;SDS011;50211;52.768;12.124;2023-04-24T04:28:13;2.53;;;2.28;;
64011;SDS011;50211;52.768;12.124;2023-04-24T04:30:38;6.27;;;2.43;;
64011;SDS011;50211;52.768;12.124;2023-04-24T04:33:05;3.60;;;2.42;;
64011;SDS011;50211;52.768;12.124;2023-04-24T04:35:30;4.90;;;2.67;;
64011;SDS011;50211;52.768;12.124;2023-04-24T04:37:56;2.67;;;2.27;;
64011;SDS011;50211;52.768;12.124;2023-04-24T04:40:23;2.97;;;2.33;;
64011;SDS011;50211;52.768;12.124;2023-04-24T04:42:49;2.85;;;2.50;;
64011;SDS011;50211;52.768;12.124;2023-04-24T04:45:17;7.03;;;2.10;;
64011;SDS011;50211;52.768;12.124;2023-04-24T04:47:43;2.83;;;2.10;;
64011;SDS011;50211;52.768;12.124;2023-04-24T04:50:09;3.25;;;2.78;;
64011;SDS011;50211;52.768;12.124;2023-04-24T04:52:35;2.47;;;2.28;;
64011;SDS011;50211;52.768;12.124;2023-04-24T04:55:01;2.88;;;2.10;;
64011;SDS011;50211;52.768;12.124;2023-04-24T04:57:26;3.17;;;2.22;;
64011;SDS011;50211;52.768;12.124;2023-04-24T04:59:52;2.95;;;2.25;;
64011;SDS011;50211;52.768;12.124;2023-04-24T05:02:18;2.35;;;1.92;;
64011;SDS011;50211;52.768;12.124;2023-04-24T05:04:43;3.00;;;2.25;;
64011;SDS011;50211;52.768;12.124;2023-04-24T05:07:09;11.93;;;2.40;;
64011;SDS011;50211;52.768;12.124;2023-04-24T05:09:35;3.90;;;2.07;;
64011;SDS011;50211;52.768;12.124;2023-04-24T05:12:01;2.63;;;2.20;;
64011;SDS011;50211;52.768;12.124;2023-04-24T05:14:27;3.00;;;1.90;;
64011;SDS011;50211;52.768;12.124;2023-04-24T05:16:52;2.20;;;2.00;;
64011;SDS011;50211;52.768;12.124;2023-04-24T05:19:18;2.87;;;2.00;;
64011;SDS011;50211;52.768;12.124;2023-04-24T05:21:43;3.20;;;2.13;;
64011;SDS011;50211;52.768;12.124;2023-04-24T05:24:09;2.27;;;1.63;;
64011;SDS011;50211;52.768;12.124;2023-04-24T05:26:34;3.60;;;2.30;;
64011;SDS011;50211;52.768;12.124;2023-04-24T05:29:00;2.47;;;1.70;;
64011;SDS011;50211;52.768;12.124;2023-04-24T05:31:26;1.87;;;1.70;;
64011;SDS011;50211;52.768;12.124;2023-04-24T05:33:51;1.80;;;1.50;;
64011;SDS011;50211;52.768;12.124;2023-04-24T05:36:17;2.20;;;1.80;;
64011;SDS011;50211;52.768;12.124;2023-04-24T05:38:42;2.20;;;1.83;;
64011;SDS011;50211;52.768;12.124;2023-04-24T05:41:08;1.60;;;1.50;;
64011;SDS011;50211;52.768;12.124;2023-04-24T05:43:33;1.95;;;1.75;;
64011;SDS011;50211;52.768;12.124;2023-04-24T05:45:59;2.35;;;1.60;;
64011;SDS011;50211;52.768;12.124;2023-04-24T05:48:25;3.00;;;1.67;;
64011;SDS011;50211;52.768;12.124;2023-04-24T05:50:51;1.90;;;1.30;;
64011;SDS011;50211;52.768;12.124;2023-04-24T05:53:17;1.30;;;1.20;;
64011;SDS011;50211;52.768;12.124;2023-04-24T05:55:43;2.58;;;2.08;;
64011;SDS011;50211;52.768;12.124;2023-04-24T05:58:09;2.63;;;1.40;;
64011;SDS011;50211;52.768;12.124;2023-04-24T06:00:34;2.70;;;1.23;;
64011;SDS011;50211;52.768;12.124;2023-04-24T06:03:00;2.35;;;1.15;;
64011;SDS011;50211;52.768;12.124;2023-04-24T06:05:28;1.38;;;1.27;;
64011;SDS011;50211;52.768;12.124;2023-04-24T06:07:54;2.17;;;1.00;;
64011;SDS011;50211;52.768;12.124;2023-04-24T06:10:20;1.88;;;0.90;;
64011;SDS011;50211;52.768;12.124;2023-04-24T06:12:45;2.03;;;0.90;;
64011;SDS011;50211;52.768;12.124;2023-04-24T06:15:11;1.45;;;0.95;;
64011;SDS011;50211;52.768;12.124;2023-04-24T06:17:37;1.25;;;1.00;;
64011;SDS011;50211;52.768;12.124;2023-04-24T06:20:03;2.13;;;1.55;;
64011;SDS011;50211;52.768;12.124;2023-04-24T06:22:30;1.30;;;1.00;;
64011;SDS011;50211;52.768;12.124;2023-04-24T06:24:56;2.08;;;1.10;;
64011;SDS011;50211;52.768;12.124;2023-04-24T06:27:21;1.23;;;1.05;;
64011;SDS011;50211;52.768;12.124;2023-04-24T06:29:47;2.00;;;1.20;;
64011;SDS011;50211;52.768;12.124;2023-04-24T06:32:19;2.35;;;1.33;;
64011;SDS011;50211;52.768;12.124;2023-04-24T06:34:45;3.33;;;1.65;;
64011;SDS011;50211;52.768;12.124;2023-04-24T06:37:11;3.03;;;1.50;;
64011;SDS011;50211;52.768;12.124;2023-04-24T06:39:36;4.68;;;1.52;;
64011;SDS011;50211;52.768;12.124;2023-04-24T06:42:02;3.28;;;1.50;;
64011;SDS011;50211;52.768;12.124;2023-04-24T06:44:27;4.93;;;1.10;;
64011;SDS011;50211;52.768;12.124;2023-04-24T06:46:53;1.23;;;1.00;;
64011;SDS011;50211;52.768;12.124;2023-04-24T06:49:18;1.50;;;0.90;;
64011;SDS011;50211;52.768;12.124;2023-04-24T06:51:45;2.60;;;0.93;;
64011;SDS011;50211;52.768;12.124;2023-04-24T06:54:10;2.40;;;1.25;;
64011;SDS011;50211;52.768;12.124;2023-04-24T06:56:36;1.27;;;0.90;;
64011;SDS011;50211;52.768;12.124;2023-04-24T06:59:01;2.33;;;1.38;;
64011;SDS011;50211;52.768;12.124;2023-04-24T07:01:27;1.60;;;0.93;;
64011;SDS011;50211;52.768;12.124;2023-04-24T07:03:52;2.72;;;1.05;;
64011;SDS011;50211;52.768;12.124;2023-04-24T07:06:18;1.00;;;0.70;;
64011;SDS011;50211;52.768;12.124;2023-04-24T07:08:46;0.65;;;0.65;;
64011;SDS011;50211;52.768;12.124;2023-04-24T07:11:12;0.60;;;0.60;;
64011;SDS011;50211;52.768;12.124;2023-04-24T07:13:37;2.92;;;1.25;;
64011;SDS011;50211;52.768;12.124;2023-04-24T07:16:06;3.65;;;0.80;;
64011;SDS011;50211;52.768;12.124;2023-04-24T07:18:33;1.75;;;0.95;;
64011;SDS011;50211;52.768;12.124;2023-04-24T07:20:58;1.13;;;0.93;;
64011;SDS011;50211;52.768;12.124;2023-04-24T07:23:24;1.00;;;0.80;;
64011;SDS011;50211;52.768;12.124;2023-04-24T07:25:49;1.20;;;0.82;;
64011;SDS011;50211;52.768;12.124;2023-04-24T07:28:15;1.63;;;0.90;;
64011;SDS011;50211;52.768;12.124;2023-04-24T07:30:42;0.68;;;0.68;;
64011;SDS011;50211;52.768;12.124;2023-04-24T07:33:08;1.20;;;0.70;;
64011;SDS011;50211;52.768;12.124;2023-04-24T07:35:36;0.88;;;0.70;;
64011;SDS011;50211;52.768;12.124;2023-04-24T07:38:01;2.22;;;0.68;;
64011;SDS011;50211;52.768;12.124;2023-04-24T07:40:27;1.30;;;0.75;;
64011;SDS011;50211;52.768;12.124;2023-04-24T07:42:52;1.13;;;0.60;;
64011;SDS011;50211;52.768;12.124;2023-04-24T07:45:18;1.50;;;0.70;;
64011;SDS011;50211;52.768;12.124;2023-04-24T07:47:43;2.42;;;0.80;;
64011;SDS011;50211;52.768;12.124;2023-04-24T07:50:10;0.98;;;0.88;;
64011;SDS011;50211;52.768;12.124;2023-04-24T07:52:37;2.80;;;0.80;;
64011;SDS011;50211;52.768;12.124;2023-04-24T07:55:03;0.95;;;0.60;;
64011;SDS011;50211;52.768;12.124;2023-04-24T07:57:28;2.28;;;0.70;;
64011;SDS011;50211;52.768;12.124;2023-04-24T07:59:54;1.58;;;0.60;;
64011;SDS011;50211;52.768;12.124;2023-04-24T08:02:20;3.03;;;0.68;;
64011;SDS011;50211;52.768;12.124;2023-04-24T08:04:51;3.00;;;0.70;;
64011;SDS011;50211;52.768;12.124;2023-04-24T08:07:17;0.80;;;0.80;;
64011;SDS011;50211;52.768;12.124;2023-04-24T08:09:43;2.60;;;0.60;;
64011;SDS011;50211;52.768;12.124;2023-04-24T08:12:09;1.90;;;0.70;;
64011;SDS011;50211;52.768;12.124;2023-04-24T08:14:34;0.68;;;0.50;;
64011;SDS011;50211;52.768;12.124;2023-04-24T08:17:00;0.75;;;0.65;;
64011;SDS011;50211;52.768;12.124;2023-04-24T08:19:26;2.03;;;0.75;;
64011;SDS011;50211;52.768;12.124;2023-04-24T08:21:51;0.63;;;0.63;;
64011;SDS011;50211;52.768;12.124;2023-04-24T08:24:17;1.65;;;0.90;;
64011;SDS011;50211;52.768;12.124;2023-04-24T08:26:42;1.35;;;0.80;;
64011;SDS011;50211;52.768;12.124;2023-04-24T08:29:08;0.55;;;0.55;;
64011;SDS011;50211;52.768;12.124;2023-04-24T08:31:34;0.88;;;0.65;;
64011;SDS011;50211;52.768;12.124;2023-04-24T08:34:00;1.38;;;0.80;;
64011;SDS011;50211;52.768;12.124;2023-04-24T08:36:25;4.78;;;0.77;;
64011;SDS011;50211;52.768;12.124;2023-04-24T08:38:51;1.40;;;0.80;;
64011;SDS011;50211;52.768;12.124;2023-04-24T08:41:17;1.10;;;0.80;;
64011;SDS011;50211;52.768;12.124;2023-04-24T08:43:45;1.77;;;0.70;;
64011;SDS011;50211;52.768;12.124;2023-04-24T08:46:11;3.05;;;0.90;;
64011;SDS011;50211;52.768;12.124;2023-04-24T08:48:38;1.70;;;1.15;;
64011;SDS011;50211;52.768;12.124;2023-04-24T08:51:06;1.70;;;0.80;;
64011;SDS011;50211;52.768;12.124;2023-04-24T08:53:32;1.00;;;0.90;;
64011;SDS011;50211;52.768;12.124;2023-04-24T08:55:59;1.92;;;0.95;;
64011;SDS011;50211;52.768;12.124;2023-04-24T08:58:26;3.05;;;0.90;;
64011;SDS011;50211;52.768;12.124;2023-04-24T09:00:55;1.77;;;0.95;;
64011;SDS011;50211;52.768;12.124;2023-04-24T09:03:22;1.23;;;0.90;;
64011;SDS011;50211;52.768;12.124;2023-04-24T09:05:48;1.38;;;0.80;;
64011;SDS011;50211;52.768;12.124;2023-04-24T09:08:16;0.73;;;0.60;;
64011;SDS011;50211;52.768;12.124;2023-04-24T09:10:43;0.90;;;0.70;;
64011;SDS011;50211;52.768;12.124;2023-04-24T09:13:09;2.00;;;1.00;;
64011;SDS011;50211;52.768;12.124;2023-04-24T09:15:35;1.20;;;0.70;;
64011;SDS011;50211;52.768;12.124;2023-04-24T09:18:02;2.17;;;0.88;;
64011;SDS011;50211;52.768;12.124;2023-04-24T09:20:28;0.80;;;0.75;;
64011;SDS011;50211;52.768;12.124;2023-04-24T09:22:54;0.98;;;0.77;;
64011;SDS011;50211;52.768;12.124;2023-04-24T09:25:24;1.00;;;0.80;;
64011;SDS011;50211;52.768;12.124;2023-04-24T09:28:00;0.95;;;0.80;;
64011;SDS011;50211;52.768;12.124;2023-04-24T09:30:29;1.88;;;1.00;;
64011;SDS011;50211;52.768;12.124;2023-04-24T09:33:10;0.50;;;0.50;;
64011;SDS011;50211;52.768;12.124;2023-04-24T09:35:40;2.40;;;0.90;;
64011;SDS011;50211;52.768;12.124;2023-04-24T09:38:15;1.20;;;0.80;;
64011;SDS011;50211;52.768;12.124;2023-04-24T09:40:41;2.75;;;1.08;;
64011;SDS011;50211;52.768;12.124;2023-04-24T09:43:09;1.05;;;0.80;;
64011;SDS011;50211;52.768;12.124;2023-04-24T09:45:39;1.90;;;1.20;;
64011;SDS011;50211;52.768;12.124;2023-04-24T09:48:05;1.90;;;0.80;;
64011;SDS011;50211;52.768;12.124;2023-04-24T09:50:33;2.20;;;0.93;;
64011;SDS011;50211;52.768;12.124;2023-04-24T09:53:01;1.90;;;0.90;;
64011;SDS011;50211;52.768;12.124;2023-04-24T09:55:28;1.15;;;0.85;;
64011;SDS011;50211;52.768;12.124;2023-04-24T09:57:55;1.10;;;0.80;;
64011;SDS011;50211;52.768;12.124;2023-04-24T10:00:29;1.60;;;0.98;;
64011;SDS011;50211;52.768;12.124;2023-04-24T10:02:59;1.65;;;0.88;;
64011;SDS011;50211;52.768;12.124;2023-04-24T10:05:33;4.63;;;0.80;;
64011;SDS011;50211;52.768;12.124;2023-04-24T10:08:03;1.13;;;0.85;;
64011;SDS011;50211;52.768;12.124;2023-04-24T10:10:40;3.05;;;0.90;;
64011;SDS011;50211;52.768;12.124;2023-04-24T10:13:07;0.60;;;0.60;;
64011;SDS011;50211;52.768;12.124;2023-04-24T10:15:35;1.17;;;0.50;;
64011;SDS011;50211;52.768;12.124;2023-04-24T10:18:01;0.80;;;0.70;;
64011;SDS011;50211;52.768;12.124;2023-04-24T10:20:29;1.63;;;0.90;;
64011;SDS011;50211;52.768;12.124;2023-04-24T10:22:56;1.52;;;0.75;;
64011;SDS011;50211;52.768;12.124;2023-04-24T10:25:23;1.13;;;0.80;;
64011;SDS011;50211;52.768;12.124;2023-04-24T10:27:53;1.73;;;1.10;;
64011;SDS011;50211;52.768;12.124;2023-04-24T10:30:22;4.38;;;2.30;;
64011;SDS011;50211;52.768;12.124;2023-04-24T10:32:48;0.80;;;0.60;;
64011;SDS011;50211;52.768;12.124;2023-04-24T10:35:14;1.40;;;0.70;;
64011;SDS011;50211;52.768;12.124;2023-04-24T10:37:45;2.85;;;0.73;;
64011;SDS011;50211;52.768;12.124;2023-04-24T10:40:18;0.90;;;0.80;;
64011;SDS011;50211;52.768;12.124;2023-04-24T10:42:51;1.58;;;0.80;;
64011;SDS011;50211;52.768;12.124;2023-04-24T10:45:20;2.45;;;1.00;;
64011;SDS011;50211;52.768;12.124;2023-04-24T10:48:20;1.38;;;1.00;;
64011;SDS011;50211;52.768;12.124;2023-04-24T10:50:47;2.13;;;0.82;;
64011;SDS011;50211;52.768;12.124;2023-04-24T10:53:17;1.20;;;1.10;;
64011;SDS011;50211;52.768;12.124;2023-04-24T10:58:23;2.60;;;1.13;;
64011;SDS011;50211;52.768;12.124;2023-04-24T11:00:56;1.67;;;1.42;;
64011;SDS011;50211;52.768;12.124;2023-04-24T11:03:30;2.30;;;1.77;;
64011;SDS011;50211;52.768;12.124;2023-04-24T11:05:58;1.10;;;1.00;;
64011;SDS011;50211;52.768;12.124;2023-04-24T11:10:56;2.35;;;1.15;;
64011;SDS011;50211;52.768;12.124;2023-04-24T11:13:31;1.97;;;1.10;;
64011;SDS011;50211;52.768;12.124;2023-04-24T11:21:53;1.50;;;1.30;;
64011;SDS011;50211;52.768;12.124;2023-04-24T11:24:33;1.40;;;1.30;;
64011;SDS011;50211;52.768;12.124;2023-04-24T11:27:17;1.85;;;1.40;;
64011;SDS011;50211;52.768;12.124;2023-04-24T11:32:34;2.40;;;1.30;;
64011;SDS011;50211;52.768;12.124;2023-04-24T11:35:04;2.03;;;1.50;;
64011;SDS011;50211;52.768;12.124;2023-04-24T11:37:51;2.15;;;1.92;;
64011;SDS011;50211;52.768;12.124;2023-04-24T11:40:18;3.05;;;1.70;;
64011;SDS011;50211;52.768;12.124;2023-04-24T11:42:49;2.63;;;1.80;;
64011;SDS011;50211;52.768;12.124;2023-04-24T11:45:16;3.38;;;2.03;;
64011;SDS011;50211;52.768;12.124;2023-04-24T11:47:44;2.45;;;2.20;;
64011;SDS011;50211;52.768;12.124;2023-04-24T11:50:15;3.63;;;1.98;;
64011;SDS011;50211;52.768;12.124;2023-04-24T11:52:42;2.00;;;1.70;;
64011;SDS011;50211;52.768;12.124;2023-04-24T11:57:50;3.08;;;1.70;;
64011;SDS011;50211;52.768;12.124;2023-04-24T12:00:25;1.83;;;1.67;;
64011;SDS011;50211;52.768;12.124;2023-04-24T12:03:02;2.97;;;2.08;;
64011;SDS011;50211;52.768;12.124;2023-04-24T12:05:32;2.58;;;2.20;;
64011;SDS011;50211;52.768;12.124;2023-04-24T12:07:58;2.45;;;2.13;;
64011;SDS011;50211;52.768;12.124;2023-04-24T12:10:25;2.50;;;2.25;;
64011;SDS011;50211;52.768;12.124;2023-04-24T12:12:52;2.40;;;2.20;;
64011;SDS011;50211;52.768;12.124;2023-04-24T12:15:19;3.58;;;2.53;;
64011;SDS011;50211;52.768;12.124;2023-04-24T12:17:45;4.10;;;2.70;;
64011;SDS011;50211;52.768;12.124;2023-04-24T12:20:11;6.15;;;3.50;;
64011;SDS011;50211;52.768;12.124;2023-04-24T12:22:48;6.68;;;3.28;;
64011;SDS011;50211;52.768;12.124;2023-04-24T12:25:19;2.95;;;2.65;;
64011;SDS011;50211;52.768;12.124;2023-04-24T12:27:46;3.03;;;2.55;;
64011;SDS011;50211;52.768;12.124;2023-04-24T12:30:38;4.07;;;2.63;;
64011;SDS011;50211;52.768;12.124;2023-04-24T12:33:06;3.80;;;2.45;;
64011;SDS011;50211;52.768;12.124;2023-04-24T12:35:39;2.30;;;2.10;;
64011;SDS011;50211;52.768;12.124;2023-04-24T12:38:06;2.67;;;2.10;;
64011;SDS011;50211;52.768;12.124;2023-04-24T12:40:37;2.95;;;2.50;;
64011;SDS011;50211;52.768;12.124;2023-04-24T12:43:12;2.58;;;2.13;;
64011;SDS011;50211;52.768;12.124;2023-04-24T12:45:41;3.08;;;2.08;;
64011;SDS011;50211;52.768;12.124;2023-04-24T12:48:06;7.40;;;2.05;;
64011;SDS011;50211;52.768;12.124;2023-04-24T12:50:32;2.90;;;1.88;;
64011;SDS011;50211;52.768;12.124;2023-04-24T12:52:57;2.53;;;1.80;;
64011;SDS011;50211;52.768;12.124;2023-04-24T12:55:23;2.95;;;2.28;;
64011;SDS011;50211;52.768;12.124;2023-04-24T12:57:48;2.17;;;1.83;;
64011;SDS011;50211;52.768;12.124;2023-04-24T13:00:14;2.90;;;1.70;;
64011;SDS011;50211;52.768;12.124;2023-04-24T13:02:40;1.88;;;1.75;;
64011;SDS011;50211;52.768;12.124;2023-04-24T13:05:05;3.15;;;1.50;;
64011;SDS011;50211;52.768;12.124;2023-04-24T13:07:31;1.88;;;1.55;;
64011;SDS011;50211;52.768;12.124;2023-04-24T13:09:57;3.03;;;1.58;;
64011;SDS011;50211;52.768;12.124;2023-04-24T13:12:23;3.72;;;1.70;;
64011;SDS011;50211;52.768;12.124;2023-04-24T13:14:52;1.83;;;1.67;;
64011;SDS011;50211;52.768;12.124;2023-04-24T13:17:18;1.75;;;1.38;;
64011;SDS011;50211;52.768;12.124;2023-04-24T13:19:44;3.17;;;1.63;;
64011;SDS011;50211;52.768;12.124;2023-04-24T13:22:10;1.40;;;1.23;;
64011;SDS011;50211;52.768;12.124;2023-04-24T13:24:37;1.38;;;1.27;;
64011;SDS011;50211;52.768;12.124;2023-04-24T13:27:04;1.60;;;1.20;;
64011;SDS011;50211;52.768;12.124;2023-04-24T13:29:30;3.00;;;1.50;;
64011;SDS011;50211;52.768;12.124;2023-04-24T13:31:55;2.60;;;1.10;;
64011;SDS011;50211;52.768;12.124;2023-04-24T13:34:22;1.88;;;1.70;;
64011;SDS011;50211;52.768;12.124;2023-04-24T13:36:49;2.22;;;1.75;;
64011;SDS011;50211;52.768;12.124;2023-04-24T13:39:16;2.90;;;1.48;;
64011;SDS011;50211;52.768;12.124;2023-04-24T13:41:41;2.88;;;1.55;;
64011;SDS011;50211;52.768;12.124;2023-04-24T13:44:07;1.50;;;1.40;;
64011;SDS011;50211;52.768;12.124;2023-04-24T13:46:33;1.65;;;1.30;;
64011;SDS011;50211;52.768;12.124;2023-04-24T13:48:59;1.55;;;1.00;;
64011;SDS011;50211;52.768;12.124;2023-04-24T13:51:25;1.20;;;1.00;;
64011;SDS011;50211;52.768;12.124;2023-04-24T13:53:54;1.85;;;0.90;;
64011;SDS011;50211;52.768;12.124;2023-04-24T13:56:20;1.30;;;0.85;;
64011;SDS011;50211;52.768;12.124;2023-04-24T13:58:47;0.85;;;0.85;;
64011;SDS011;50211;52.768;12.124;2023-04-24T14:01:13;0.70;;;0.70;;
64011;SDS011;50211;52.768;12.124;2023-04-24T14:03:39;1.17;;;0.88;;
64011;SDS011;50211;52.768;12.124;2023-04-24T14:06:05;1.42;;;1.13;;
64011;SDS011;50211;52.768;12.124;2023-04-24T14:08:31;1.17;;;1.08;;
64011;SDS011;50211;52.768;12.124;2023-04-24T14:10:57;2.33;;;0.90;;
64011;SDS011;50211;52.768;12.124;2023-04-24T14:13:22;1.00;;;0.90;;
64011;SDS011;50211;52.768;12.124;2023-04-24T14:15:48;0.73;;;0.70;;
64011;SDS011;50211;52.768;12.124;2023-04-24T14:18:14;1.42;;;1.05;;
64011;SDS011;50211;52.768;12.124;2023-04-24T14:20:39;1.35;;;1.05;;
64011;SDS011;50211;52.768;12.124;2023-04-24T14:23:05;2.15;;;1.02;;
64011;SDS011;50211;52.768;12.124;2023-04-24T14:25:30;3.75;;;1.23;;
64011;SDS011;50211;52.768;12.124;2023-04-24T14:27:56;3.83;;;1.17;;
64011;SDS011;50211;52.768;12.124;2023-04-24T14:30:21;1.73;;;1.20;;
64011;SDS011;50211;52.768;12.124;2023-04-24T14:32:48;2.08;;;1.33;;
64011;SDS011;50211;52.768;12.124;2023-04-24T14:35:13;1.73;;;1.20;;
64011;SDS011;50211;52.768;12.124;2023-04-24T14:37:39;1.02;;;1.00;;
64011;SDS011;50211;52.768;12.124;2023-04-24T14:40:06;1.40;;;1.17;;
64011;SDS011;50211;52.768;12.124;2023-04-24T14:42:33;1.08;;;0.98;;
64011;SDS011;50211;52.768;12.124;2023-04-24T14:44:58;0.88;;;0.82;;
64011;SDS011;50211;52.768;12.124;2023-04-24T14:47:24;1.30;;;1.15;;